createdAt,value
2023-07-22T00:00:55.594Z,21.53
2023-07-22T00:03:22.194Z,21.53
2023-07-22T00:05:48.636Z,21.48
2023-07-22T00:08:15.009Z,21.50
2023-07-22T00:10:41.393Z,21.51
2023-07-22T00:13:07.741Z,21.42
2023-07-22T00:15:34.102Z,21.32
2023-07-22T00:18:00.542Z,21.28
2023-07-22T00:20:26.920Z,21.15
2023-07-22T00:22:53.261Z,21.07
2023-07-22T00:25:19.664Z,21.21
2023-07-22T00:27:46.011Z,21.27
2023-07-22T00:30:12.364Z,21.23
2023-07-22T00:32:38.820Z,21.17
2023-07-22T00:35:05.235Z,21.04
2023-07-22T00:37:31.594Z,20.83
2023-07-22T00:39:57.966Z,20.83
2023-07-22T00:42:24.316Z,20.83
2023-07-22T00:44:50.675Z,20.93
2023-07-22T00:47:17.052Z,21.01
2023-07-22T00:49:43.423Z,21.08
2023-07-22T00:52:09.770Z,20.97
2023-07-22T00:54:36.137Z,20.86
2023-07-22T00:57:02.491Z,20.87
2023-07-22T00:59:28.835Z,20.98
2023-07-22T01:01:55.220Z,20.99
2023-07-22T01:04:21.588Z,20.91
2023-07-22T01:06:47.942Z,20.89
2023-07-22T01:09:14.324Z,20.75
2023-07-22T01:11:40.691Z,20.69
2023-07-22T01:16:33.409Z,20.52
2023-07-22T01:18:59.790Z,20.52
2023-07-22T01:21:26.187Z,20.52
2023-07-22T01:23:52.576Z,20.54
2023-07-22T01:26:18.935Z,20.55
2023-07-22T01:28:45.285Z,20.64
2023-07-22T01:31:11.713Z,20.44
2023-07-22T01:33:38.089Z,20.45
2023-07-22T01:36:04.435Z,20.34
2023-07-22T01:38:30.824Z,20.24
2023-07-22T01:40:57.166Z,20.24
2023-07-22T01:43:23.537Z,20.26
2023-07-22T01:45:49.899Z,20.32
2023-07-22T01:48:16.349Z,20.35
2023-07-22T01:50:42.705Z,20.35
2023-07-22T01:53:09.061Z,20.40
2023-07-22T01:55:35.456Z,20.33
2023-07-22T01:58:01.808Z,20.36
2023-07-22T02:00:28.225Z,20.25
2023-07-22T02:02:54.710Z,20.16
2023-07-22T02:05:21.105Z,20.05
2023-07-22T02:07:47.477Z,19.90
2023-07-22T02:10:13.852Z,19.99
2023-07-22T02:12:40.227Z,19.93
2023-07-22T02:15:06.649Z,20.15
2023-07-22T02:17:33.117Z,20.02
2023-07-22T02:19:59.527Z,20.16
2023-07-22T02:22:25.934Z,20.07
2023-07-22T02:24:52.347Z,20.23
2023-07-22T02:27:18.740Z,20.14
2023-07-22T02:29:45.096Z,20.19
2023-07-22T02:32:11.444Z,20.14
2023-07-22T02:34:37.814Z,20.13
2023-07-22T02:37:04.255Z,20.21
2023-07-22T02:39:30.593Z,20.23
2023-07-22T02:41:56.956Z,20.21
2023-07-22T02:44:23.327Z,20.25
2023-07-22T02:46:49.710Z,20.15
2023-07-22T02:49:16.064Z,20.32
2023-07-22T02:51:42.451Z,20.42
2023-07-22T02:54:08.864Z,20.47
2023-07-22T02:56:35.205Z,20.28
2023-07-22T02:59:01.560Z,20.34
2023-07-22T03:01:27.913Z,20.29
2023-07-22T03:03:54.295Z,20.33
2023-07-22T03:06:20.669Z,20.39
2023-07-22T03:08:47.017Z,20.29
2023-07-22T03:11:13.362Z,20.07
2023-07-22T03:13:39.727Z,20.00
2023-07-22T03:16:06.213Z,20.08
2023-07-22T03:18:32.695Z,20.03
2023-07-22T03:20:59.048Z,20.10
2023-07-22T03:23:25.396Z,19.98
2023-07-22T03:25:51.737Z,19.96
2023-07-22T03:28:18.097Z,19.96
2023-07-22T03:30:44.442Z,20.03
2023-07-22T03:33:10.833Z,19.94
2023-07-22T03:35:37.197Z,19.93
2023-07-22T03:38:03.565Z,19.76
2023-07-22T03:40:29.914Z,19.67
2023-07-22T03:42:56.333Z,19.74
2023-07-22T03:45:22.699Z,19.73
2023-07-22T03:47:49.048Z,19.78
2023-07-22T03:50:15.474Z,19.84
2023-07-22T03:52:41.821Z,19.86
2023-07-22T03:55:08.160Z,19.81
2023-07-22T03:57:36.042Z,19.74
2023-07-22T04:00:03.048Z,19.67
2023-07-22T04:02:29.442Z,19.72
2023-07-22T04:04:55.817Z,19.64
2023-07-22T04:07:22.176Z,19.68
2023-07-22T04:09:48.537Z,19.59
2023-07-22T04:12:14.919Z,19.51
2023-07-22T04:14:41.283Z,19.55
2023-07-22T04:17:07.712Z,19.64
2023-07-22T04:19:34.459Z,19.73
2023-07-22T04:22:00.805Z,19.74
2023-07-22T04:24:27.264Z,19.64
2023-07-22T04:26:53.720Z,19.67
2023-07-22T04:29:20.093Z,19.61
2023-07-22T04:31:46.455Z,19.59
2023-07-22T04:34:12.836Z,19.72
2023-07-22T04:36:39.197Z,19.75
2023-07-22T04:39:05.550Z,19.71
2023-07-22T04:41:31.901Z,19.73
2023-07-22T04:43:58.239Z,19.98
2023-07-22T04:46:24.913Z,19.91
2023-07-22T04:48:51.697Z,19.96
2023-07-22T04:51:18.046Z,20.05
2023-07-22T04:53:44.394Z,20.15
2023-07-22T04:56:10.764Z,20.28
2023-07-22T04:58:37.112Z,20.33
2023-07-22T05:01:03.504Z,20.43
2023-07-22T05:03:30.015Z,20.48
2023-07-22T05:05:56.436Z,20.60
2023-07-22T05:08:22.780Z,20.73
2023-07-22T05:10:49.142Z,20.89
2023-07-22T05:13:15.549Z,20.94
2023-07-22T05:15:41.876Z,21.01
2023-07-22T05:18:08.291Z,21.00
2023-07-22T05:20:34.660Z,20.99
2023-07-22T05:23:01.012Z,21.08
2023-07-22T05:25:27.402Z,21.12
2023-07-22T05:27:53.742Z,20.90
2023-07-22T05:30:34.128Z,21.02
2023-07-22T05:33:02.494Z,21.10
2023-07-22T05:35:29.006Z,21.30
2023-07-22T05:37:55.392Z,21.35
2023-07-22T05:40:21.765Z,21.46
2023-07-22T05:42:48.142Z,21.44
2023-07-22T05:45:14.506Z,21.34
2023-07-22T05:47:40.935Z,21.48
2023-07-22T05:50:07.336Z,21.59
2023-07-22T05:52:33.706Z,21.63
2023-07-22T05:55:00.176Z,21.73
2023-07-22T05:57:27.629Z,21.60
2023-07-22T06:00:07.511Z,21.50
2023-07-22T06:02:35.600Z,21.62
2023-07-22T06:05:01.993Z,21.70
2023-07-22T06:07:28.363Z,21.77
2023-07-22T06:09:54.736Z,21.90
2023-07-22T06:12:21.070Z,21.88
2023-07-22T06:14:47.535Z,21.97
2023-07-22T06:17:13.933Z,22.06
2023-07-22T06:19:40.288Z,22.08
2023-07-22T06:22:06.634Z,21.98
2023-07-22T06:24:33.090Z,21.99
2023-07-22T06:26:59.501Z,21.88
2023-07-22T06:29:25.860Z,21.77
2023-07-22T06:31:52.306Z,21.79
2023-07-22T06:34:18.697Z,21.84
2023-07-22T06:36:45.052Z,21.78
2023-07-22T06:39:11.428Z,21.94
2023-07-22T06:41:37.774Z,21.96
2023-07-22T06:44:04.121Z,21.92
2023-07-22T06:46:30.903Z,21.94
2023-07-22T06:48:57.821Z,21.86
2023-07-22T06:51:24.173Z,21.83
2023-07-22T06:53:50.553Z,21.96
2023-07-22T06:56:16.903Z,22.01
2023-07-22T06:58:43.392Z,21.93
2023-07-22T07:01:09.844Z,21.91
2023-07-22T07:03:36.228Z,21.87
2023-07-22T07:06:02.579Z,21.84
2023-07-22T07:08:28.928Z,21.72
2023-07-22T07:10:56.639Z,21.78
2023-07-22T07:13:23.193Z,21.79
2023-07-22T07:15:49.587Z,21.83
2023-07-22T07:18:16.058Z,21.92
2023-07-22T07:20:42.423Z,22.01
2023-07-22T07:23:08.794Z,22.16
2023-07-22T07:25:35.147Z,22.23
2023-07-22T07:28:01.492Z,22.17
2023-07-22T07:30:27.867Z,22.14
2023-07-22T07:32:54.247Z,22.35
2023-07-22T07:35:20.636Z,22.41
2023-07-22T07:37:47.004Z,22.56
2023-07-22T07:40:13.349Z,22.60
2023-07-22T07:42:39.710Z,22.64
2023-07-22T07:45:06.080Z,22.76
2023-07-22T07:47:32.436Z,22.80
2023-07-22T07:49:58.857Z,22.81
2023-07-22T07:52:25.218Z,22.69
2023-07-22T07:54:51.571Z,22.87
2023-07-22T07:57:17.954Z,23.14
2023-07-22T07:59:44.321Z,22.94
2023-07-22T08:02:10.861Z,22.92
2023-07-22T08:04:37.367Z,22.87
2023-07-22T08:07:03.883Z,23.10
2023-07-22T08:09:30.663Z,23.22
2023-07-22T08:11:57.120Z,23.37
2023-07-22T08:14:23.592Z,23.50
2023-07-22T08:16:50.054Z,23.59
2023-07-22T08:19:16.510Z,23.72
2023-07-22T08:21:42.996Z,23.79
2023-07-22T08:24:09.477Z,23.80
2023-07-22T08:26:35.931Z,23.72
2023-07-22T08:29:02.359Z,23.64
2023-07-22T08:31:28.742Z,23.98
2023-07-22T08:33:55.141Z,23.91
2023-07-22T08:36:21.539Z,23.99
2023-07-22T08:38:47.896Z,24.00
2023-07-22T08:41:14.266Z,24.01
2023-07-22T08:43:40.644Z,24.10
2023-07-22T08:46:07.017Z,24.24
2023-07-22T08:48:33.424Z,24.23
2023-07-22T08:50:59.792Z,24.29
2023-07-22T08:53:26.154Z,24.30
2023-07-22T08:55:52.542Z,24.52
2023-07-22T08:58:18.979Z,24.31
2023-07-22T09:00:45.350Z,24.11
2023-07-22T09:03:11.743Z,24.11
2023-07-22T09:05:38.145Z,24.19
2023-07-22T09:08:04.494Z,24.45
2023-07-22T09:10:30.947Z,24.75
2023-07-22T09:12:57.431Z,24.77
2023-07-22T09:15:23.782Z,25.09
2023-07-22T09:17:50.168Z,25.32
2023-07-22T09:20:16.556Z,25.19
2023-07-22T09:22:43.082Z,25.34
2023-07-22T09:25:09.434Z,25.37
2023-07-22T09:27:37.539Z,25.46
2023-07-22T09:30:05.973Z,25.72
2023-07-22T09:32:32.342Z,25.81
2023-07-22T09:34:58.730Z,25.90
2023-07-22T09:37:25.070Z,26.24
2023-07-22T09:39:51.429Z,26.51
2023-07-22T09:42:17.822Z,26.50
2023-07-22T09:44:44.190Z,26.71
2023-07-22T09:47:10.709Z,26.83
2023-07-22T09:49:37.272Z,27.08
2023-07-22T09:52:03.652Z,26.96
2023-07-22T09:54:30.013Z,26.93
2023-07-22T09:56:56.377Z,27.04
2023-07-22T09:59:22.728Z,27.04
2023-07-22T10:01:49.121Z,27.28
2023-07-22T10:04:15.557Z,27.46
2023-07-22T10:06:41.930Z,27.66
2023-07-22T10:09:08.307Z,27.33
2023-07-22T10:11:34.712Z,27.30
2023-07-22T10:14:01.072Z,27.32
2023-07-22T10:16:27.622Z,27.34
2023-07-22T10:18:54.280Z,27.45
2023-07-22T10:21:20.693Z,27.61
2023-07-22T10:23:47.031Z,27.79
2023-07-22T10:26:13.396Z,27.73
2023-07-22T10:28:39.737Z,27.68
2023-07-22T10:31:06.140Z,28.04
2023-07-22T10:33:32.549Z,28.29
2023-07-22T10:35:58.898Z,28.29
2023-07-22T10:38:25.322Z,28.25
2023-07-22T10:40:51.677Z,28.43
2023-07-22T10:43:18.155Z,28.44
2023-07-22T10:45:44.495Z,28.32
2023-07-22T10:48:10.863Z,28.56
2023-07-22T10:50:37.233Z,28.25
2023-07-22T10:53:03.625Z,28.29
2023-07-22T10:55:30.041Z,27.86
2023-07-22T10:57:56.405Z,27.84
2023-07-22T11:00:22.756Z,28.32
2023-07-22T11:02:49.212Z,28.17
2023-07-22T11:05:15.598Z,28.09
2023-07-22T11:07:42.115Z,28.38
2023-07-22T11:10:09.726Z,28.36
2023-07-22T11:12:36.066Z,28.01
2023-07-22T11:15:02.425Z,28.38
2023-07-22T11:17:28.880Z,28.39
2023-07-22T11:19:55.276Z,28.43
2023-07-22T11:22:21.636Z,28.44
2023-07-22T11:24:48.143Z,28.33
2023-07-22T11:27:14.508Z,28.27
2023-07-22T11:29:40.868Z,28.16
2023-07-22T11:32:07.243Z,28.25
2023-07-22T11:34:34.143Z,28.30
2023-07-22T11:37:00.516Z,28.37
2023-07-22T11:39:26.908Z,28.06
2023-07-22T11:41:53.263Z,28.21
2023-07-22T11:44:19.614Z,28.36
2023-07-22T11:46:46.003Z,28.17
2023-07-22T11:49:12.353Z,28.03
2023-07-22T11:51:38.713Z,28.16
2023-07-22T11:54:05.088Z,28.05
2023-07-22T11:56:31.446Z,27.97
2023-07-22T11:58:57.803Z,27.87
2023-07-22T12:01:24.198Z,27.75
2023-07-22T12:03:50.590Z,27.63
2023-07-22T12:06:17.003Z,27.88
2023-07-22T12:08:44.193Z,28.03
2023-07-22T12:11:10.676Z,28.19
2023-07-22T12:13:37.028Z,28.15
2023-07-22T12:16:03.408Z,28.39
2023-07-22T12:18:29.788Z,28.23
2023-07-22T12:20:56.160Z,28.22
2023-07-22T12:23:22.535Z,28.31
2023-07-22T12:25:49.154Z,28.43
2023-07-22T12:28:15.518Z,28.11
2023-07-22T12:30:43.761Z,27.81
2023-07-22T12:33:10.163Z,27.52
2023-07-22T12:35:36.551Z,27.75
2023-07-22T12:38:02.950Z,27.90
2023-07-22T12:40:29.294Z,27.67
2023-07-22T12:42:55.637Z,27.89
2023-07-22T12:45:22.008Z,27.82
2023-07-22T12:47:48.391Z,27.71
2023-07-22T12:50:14.752Z,27.84
2023-07-22T12:52:41.125Z,27.77
2023-07-22T12:55:07.489Z,27.78
2023-07-22T12:57:33.906Z,27.94
2023-07-22T13:00:00.298Z,27.87
2023-07-22T13:02:26.836Z,27.81
2023-07-22T13:04:53.220Z,27.80
2023-07-22T13:07:19.605Z,27.75
2023-07-22T13:09:45.971Z,27.68
2023-07-22T13:12:12.371Z,27.63
2023-07-22T13:14:39.965Z,27.59
2023-07-22T13:17:06.504Z,27.83
2023-07-22T13:19:34.062Z,27.91
2023-07-22T13:22:00.465Z,27.83
2023-07-22T13:24:26.850Z,27.66
2023-07-22T13:26:53.241Z,27.63
2023-07-22T13:29:19.603Z,27.65
2023-07-22T13:31:45.964Z,27.60
2023-07-22T13:34:12.390Z,27.43
2023-07-22T13:36:38.835Z,27.45
2023-07-22T13:39:05.182Z,27.47
2023-07-22T13:41:31.566Z,27.37
2023-07-22T13:43:57.944Z,27.46
2023-07-22T13:46:24.337Z,27.65
2023-07-22T13:48:50.791Z,27.52
2023-07-22T13:51:17.153Z,27.61
2023-07-22T13:53:43.539Z,27.78
2023-07-22T13:56:09.902Z,27.64
2023-07-22T13:58:36.278Z,27.79
2023-07-22T14:01:02.799Z,27.65
2023-07-22T14:03:29.285Z,27.77
2023-07-22T14:05:55.675Z,27.65
2023-07-22T14:08:22.147Z,27.70
2023-07-22T14:10:48.534Z,27.77
2023-07-22T14:13:14.922Z,27.85
2023-07-22T14:15:41.375Z,27.83
2023-07-22T14:18:07.782Z,27.74
2023-07-22T14:20:34.158Z,27.80
2023-07-22T14:23:00.501Z,27.67
2023-07-22T14:25:26.834Z,27.63
2023-07-22T14:27:53.223Z,27.77
2023-07-22T14:30:19.592Z,27.76
2023-07-22T14:32:46.006Z,27.66
2023-07-22T14:35:12.387Z,27.86
2023-07-22T14:37:38.746Z,27.83
2023-07-22T14:40:05.148Z,27.57
2023-07-22T14:42:31.633Z,27.50
2023-07-22T14:44:58.001Z,27.58
2023-07-22T14:47:24.356Z,27.55
2023-07-22T14:49:53.259Z,27.65
2023-07-22T14:52:20.065Z,27.74
2023-07-22T14:54:46.435Z,27.74
2023-07-22T14:57:12.836Z,27.78
2023-07-22T14:59:39.209Z,27.77
2023-07-22T15:02:05.551Z,27.70
2023-07-22T15:04:31.915Z,27.63
2023-07-22T15:06:58.267Z,27.55
2023-07-22T15:09:24.619Z,27.68
2023-07-22T15:11:50.979Z,27.61
2023-07-22T15:14:17.349Z,27.54
2023-07-22T15:16:43.736Z,27.51
2023-07-22T15:19:10.146Z,27.48
2023-07-22T15:21:36.506Z,27.46
2023-07-22T15:24:02.887Z,27.31
2023-07-22T15:26:29.252Z,27.38
2023-07-22T15:28:55.583Z,27.56
2023-07-22T15:31:21.926Z,27.58
2023-07-22T15:33:48.313Z,27.52
2023-07-22T15:36:14.681Z,27.50
2023-07-22T15:38:41.030Z,27.42
2023-07-22T15:41:07.442Z,27.49
2023-07-22T15:43:33.783Z,27.63
2023-07-22T15:46:00.223Z,27.78
2023-07-22T15:48:26.772Z,27.88
2023-07-22T15:50:53.138Z,27.91
2023-07-22T15:53:19.491Z,27.96
2023-07-22T15:55:45.853Z,27.93
2023-07-22T15:58:12.200Z,28.03
2023-07-22T16:00:38.554Z,27.93
2023-07-22T16:03:05.025Z,27.93
2023-07-22T16:05:31.436Z,27.98
2023-07-22T16:07:57.832Z,27.95
2023-07-22T16:10:24.252Z,28.01
2023-07-22T16:12:50.645Z,27.94
2023-07-22T16:15:17.001Z,27.88
2023-07-22T16:17:43.465Z,27.95
2023-07-22T16:20:09.908Z,27.87
2023-07-22T16:22:37.745Z,27.90
2023-07-22T16:25:05.441Z,27.95
2023-07-22T16:27:31.807Z,27.95
2023-07-22T16:29:58.141Z,27.94
2023-07-22T16:32:24.613Z,27.91
2023-07-22T16:34:50.993Z,27.87
2023-07-22T16:37:17.387Z,27.75
2023-07-22T16:39:43.818Z,27.82
2023-07-22T16:42:10.182Z,27.66
2023-07-22T16:44:36.525Z,27.79
2023-07-22T16:47:02.898Z,27.81
2023-07-22T16:49:29.237Z,27.68
2023-07-22T16:51:55.605Z,27.60
2023-07-22T16:54:22.010Z,27.64
2023-07-22T16:56:48.361Z,27.67
2023-07-22T16:59:14.726Z,27.58
2023-07-22T17:01:41.150Z,27.49
2023-07-22T17:04:07.546Z,27.62
2023-07-22T17:06:33.896Z,27.51
2023-07-22T17:09:00.275Z,27.48
2023-07-22T17:11:27.086Z,27.55
2023-07-22T17:13:53.662Z,27.46
2023-07-22T17:16:20.061Z,27.38
2023-07-22T17:18:46.447Z,27.39
2023-07-22T17:21:12.798Z,27.32
2023-07-22T17:23:39.161Z,27.34
2023-07-22T17:26:05.520Z,27.35
2023-07-22T17:28:31.873Z,27.32
2023-07-22T17:30:58.286Z,27.29
2023-07-22T17:33:24.648Z,27.31
2023-07-22T17:35:51.015Z,27.26
2023-07-22T17:38:17.587Z,27.14
2023-07-22T17:40:43.930Z,27.11
2023-07-22T17:43:10.283Z,27.14
2023-07-22T17:45:36.660Z,27.12
2023-07-22T17:48:03.052Z,27.23
2023-07-22T17:50:29.422Z,27.12
2023-07-22T17:52:55.796Z,27.00
2023-07-22T17:55:22.176Z,26.97
2023-07-22T17:57:48.531Z,26.98
2023-07-22T18:00:15.033Z,26.98
2023-07-22T18:02:41.488Z,26.90
2023-07-22T18:05:07.861Z,26.88
2023-07-22T18:07:34.267Z,26.84
2023-07-22T18:10:00.632Z,26.80
2023-07-22T18:12:27.207Z,26.85
2023-07-22T18:14:53.598Z,26.83
2023-07-22T18:17:19.958Z,26.78
2023-07-22T18:19:46.307Z,26.64
2023-07-22T18:22:12.713Z,26.62
2023-07-22T18:24:39.091Z,26.58
2023-07-22T18:27:05.431Z,26.62
2023-07-22T18:29:31.805Z,26.65
2023-07-22T18:31:58.183Z,26.63
2023-07-22T18:34:24.528Z,26.58
2023-07-22T18:36:50.920Z,26.49
2023-07-22T18:39:17.260Z,26.33
2023-07-22T18:41:43.612Z,26.38
2023-07-22T18:44:10.021Z,26.36
2023-07-22T18:46:36.419Z,26.25
2023-07-22T18:49:02.834Z,26.20
2023-07-22T18:51:29.542Z,26.20
2023-07-22T18:53:56.185Z,26.15
2023-07-22T18:56:22.535Z,26.11
2023-07-22T18:58:48.908Z,25.96
2023-07-22T19:01:15.350Z,26.11
2023-07-22T19:03:41.721Z,26.04
2023-07-22T19:06:08.125Z,26.09
2023-07-22T19:08:34.470Z,25.96
2023-07-22T19:11:00.824Z,25.92
2023-07-22T19:13:27.309Z,26.03
2023-07-22T19:15:53.656Z,25.96
2023-07-22T19:18:20.191Z,25.89
2023-07-22T19:20:46.568Z,25.77
2023-07-22T19:23:12.949Z,25.70
2023-07-22T19:25:39.366Z,25.74
2023-07-22T19:28:05.872Z,25.70
2023-07-22T19:30:32.265Z,25.60
2023-07-22T19:32:58.619Z,25.57
2023-07-22T19:35:25.040Z,25.57
2023-07-22T19:37:51.443Z,25.50
2023-07-22T19:40:17.787Z,25.41
2023-07-22T19:42:44.155Z,25.55
2023-07-22T19:45:10.496Z,25.54
2023-07-22T19:47:36.885Z,25.43
2023-07-22T19:50:03.285Z,25.43
2023-07-22T19:52:29.633Z,25.41
2023-07-22T19:54:55.973Z,25.44
2023-07-22T19:57:22.343Z,25.43
2023-07-22T19:59:48.709Z,25.41
2023-07-22T20:02:15.073Z,25.41
2023-07-22T20:04:41.494Z,25.40
2023-07-22T20:07:08.012Z,25.25
2023-07-22T20:09:34.364Z,25.32
2023-07-22T20:12:00.807Z,25.20
2023-07-22T20:14:27.170Z,25.21
2023-07-22T20:16:53.682Z,25.24
2023-07-22T20:19:20.121Z,25.06
2023-07-22T20:21:47.410Z,25.02
2023-07-22T20:24:13.842Z,25.00
2023-07-22T20:26:40.257Z,24.97
2023-07-22T20:29:06.644Z,24.93
2023-07-22T20:31:33.007Z,24.87
2023-07-22T20:33:59.415Z,24.89
2023-07-22T20:36:25.801Z,24.87
2023-07-22T20:38:52.163Z,24.91
2023-07-22T20:41:18.589Z,24.94
2023-07-22T20:43:44.983Z,24.90
2023-07-22T20:46:11.460Z,24.86
2023-07-22T20:48:37.899Z,24.92
2023-07-22T20:51:04.275Z,24.92
2023-07-22T20:53:30.735Z,24.94
2023-07-22T20:55:57.164Z,24.87
2023-07-22T20:58:23.535Z,24.90
2023-07-22T21:00:49.927Z,24.89
2023-07-22T21:03:16.499Z,24.83
2023-07-22T21:05:42.985Z,24.71
2023-07-22T21:08:09.351Z,24.74
2023-07-22T21:10:35.773Z,24.75
2023-07-22T21:13:02.117Z,24.70
2023-07-22T21:15:28.485Z,24.62
2023-07-22T21:17:54.970Z,24.69
2023-07-22T21:20:21.472Z,24.64
2023-07-22T21:22:47.838Z,24.55
2023-07-22T21:25:14.220Z,24.73
2023-07-22T21:27:48.055Z,24.75
2023-07-22T21:30:15.324Z,24.71
2023-07-22T21:32:41.739Z,24.62
2023-07-22T21:35:08.136Z,24.63
2023-07-22T21:37:34.495Z,24.67
2023-07-22T21:40:01.061Z,24.55
2023-07-22T21:42:27.407Z,24.42
2023-07-22T21:44:53.802Z,24.29
2023-07-22T21:47:20.160Z,24.17
2023-07-22T21:49:46.508Z,24.23
2023-07-22T21:52:12.869Z,24.24
2023-07-22T21:54:39.208Z,24.12
2023-07-22T21:57:05.572Z,23.96
2023-07-22T21:59:31.957Z,23.94
2023-07-22T22:01:58.410Z,23.99
2023-07-22T22:04:24.783Z,24.04
2023-07-22T22:06:51.152Z,24.05
2023-07-22T22:09:17.510Z,24.01
2023-07-22T22:11:43.858Z,24.14
2023-07-22T22:14:10.226Z,24.04
2023-07-22T22:16:36.677Z,23.96
2023-07-22T22:19:03.069Z,23.95
2023-07-22T22:21:29.781Z,23.97
2023-07-22T22:23:56.374Z,23.94
2023-07-22T22:26:22.718Z,24.04
2023-07-22T22:28:49.099Z,23.94
2023-07-22T22:31:15.648Z,23.86
2023-07-22T22:33:42.040Z,23.84
2023-07-22T22:36:08.417Z,23.91
2023-07-22T22:38:34.761Z,23.81
2023-07-22T22:41:01.148Z,23.91
2023-07-22T22:43:27.536Z,23.73
2023-07-22T22:45:53.912Z,23.79
2023-07-22T22:48:20.306Z,23.81
2023-07-22T22:50:46.718Z,23.81
2023-07-22T22:53:13.077Z,23.84
2023-07-22T22:55:39.429Z,23.90
2023-07-22T22:58:05.801Z,23.88
2023-07-22T23:00:32.146Z,23.90
2023-07-22T23:02:58.540Z,23.79
2023-07-22T23:05:25.089Z,23.72
2023-07-22T23:07:51.435Z,23.78
2023-07-22T23:10:17.815Z,23.79
2023-07-22T23:12:45.105Z,23.69
2023-07-22T23:15:11.472Z,23.72
2023-07-22T23:17:38.013Z,23.73
2023-07-22T23:20:04.466Z,23.70
2023-07-22T23:22:30.806Z,23.64
2023-07-22T23:24:59.588Z,23.74
2023-07-22T23:27:26.276Z,23.64
2023-07-22T23:29:52.667Z,23.69
2023-07-22T23:32:19.015Z,23.61
2023-07-22T23:34:45.383Z,23.70
2023-07-22T23:37:11.734Z,23.69
2023-07-22T23:39:38.106Z,23.56
2023-07-22T23:42:04.671Z,23.54
2023-07-22T23:44:31.033Z,23.62
2023-07-22T23:46:57.397Z,23.50
2023-07-22T23:49:23.800Z,23.49
2023-07-22T23:51:50.147Z,23.45
2023-07-22T23:54:16.576Z,23.53
2023-07-22T23:56:43.041Z,23.40
2023-07-22T23:59:09.465Z,23.54
